Columbus, Ohio
Traffic Map
Current Weather Conditions
Columbus, Ohio
Scattered Clouds
Scattered Clouds
24°
Feels Like: 24°
Wind Chill: 24° Ceiling: Unl
Heat Index: 24° Visibility: 10mi
Dew Point: 19° Wind: 3mph
Humidity: 71% Direction: 250° (WSW)
Pressure: 29.93in Gusts: 0mph
Raw Report DataKCMH 022351Z 25003KT 10SM FEW027 SCT170 24/19 A2993 RMK AO2 SLP129 60000 T02440189 10278 20244 53002
Traffic Incident Summary
Active as of:
Severity:
Category:
InformationThere was an issue retrieving the traffic information for this location. Please try a different location or try again shortly.
Advertisements
Track Severe Weather on mobile